Time;durP1;ratioP1;P1;durP2;ratioP2;P2;SDS_P1;SDS_P2;PMS_P1;PMS_P2;Temp;Humidity;BMP_temperature;BMP_pressure;BME280_temperature;BME280_humidity;BME280_pressure;Samples;Min_cycle;Max_cycle;Signal;HPM_P1;HPM_P2
2020/12/26 00:00:13;;;;;;;;;;;18.80;44.00;;;;;;491887;240;1073;-53
2020/12/26 00:02:14;;;;;;;;;;;18.80;43.90;;;;;;491737;240;1331;-53
2020/12/26 00:04:15;;;;;;;;;;;18.80;43.90;;;;;;491762;240;2125;-53
2020/12/26 00:06:17;;;;;;;;;;;18.80;43.90;;;;;;491690;240;1273;-53
2020/12/26 00:08:19;;;;;;;;;;;18.80;43.80;;;;;;491844;240;1174;-53
2020/12/26 00:10:21;;;;;;;;;;;18.80;43.80;;;;;;491473;242;1255;-53
2020/12/26 00:12:22;;;;;;;;;;;18.80;43.70;;;;;;491822;240;1405;-53
2020/12/26 00:14:27;;;;;;;;;;;18.80;43.70;;;;;;491756;240;952;-53
2020/12/26 00:16:25;;;;;;;;;;;18.90;43.80;;;;;;491497;242;1456;-53
2020/12/26 00:18:26;;;;;;;;;;;18.90;43.70;;;;;;491608;240;1069;-52
2020/12/26 00:20:28;;;;;;;;;;;18.90;43.70;;;;;;491791;240;1061;-53
2020/12/26 00:22:29;;;;;;;;;;;18.90;43.70;;;;;;491713;240;1128;-53
2020/12/26 00:24:30;;;;;;;;;;;18.90;43.60;;;;;;492033;240;2199;-53
2020/12/26 00:26:32;;;;;;;;;;;18.90;43.60;;;;;;491900;240;1199;-52
2020/12/26 00:28:33;;;;;;;;;;;19.00;43.70;;;;;;491789;240;1173;-53
2020/12/26 00:30:34;;;;;;;;;;;19.00;43.60;;;;;;491840;240;1063;-53
2020/12/26 00:32:35;;;;;;;;;;;19.00;43.60;;;;;;491562;240;1152;-53
2020/12/26 00:34:37;;;;;;;;;;;19.00;43.60;;;;;;491907;240;1203;-53
2020/12/26 00:36:38;;;;;;;;;;;19.00;43.50;;;;;;491789;240;996;-53
2020/12/26 00:38:39;;;;;;;;;;;19.00;43.50;;;;;;491709;240;1103;-53
2020/12/26 00:40:41;;;;;;;;;;;19.00;43.50;;;;;;491942;240;1060;-53
2020/12/26 00:42:42;;;;;;;;;;;19.00;43.50;;;;;;491718;240;1221;-52
2020/12/26 00:44:43;;;;;;;;;;;19.00;43.50;;;;;;491664;240;2136;-53
2020/12/26 00:46:45;;;;;;;;;;;19.00;43.40;;;;;;491615;240;1170;-53
2020/12/26 00:48:46;;;;;;;;;;;19.10;43.50;;;;;;491685;240;1341;-53
2020/12/26 00:50:47;;;;;;;;;;;19.10;43.40;;;;;;491829;240;991;-53
2020/12/26 00:52:48;;;;;;;;;;;19.10;43.40;;;;;;491624;240;1294;-53
2020/12/26 00:54:50;;;;;;;;;;;19.10;43.40;;;;;;491655;240;969;-53
2020/12/26 00:56:51;;;;;;;;;;;19.10;43.40;;;;;;491573;240;1103;-52
2020/12/26 00:58:52;;;;;;;;;;;19.10;42.10;;;;;;491700;240;1043;-53
2020/12/26 01:00:53;;;;;;;;;;;19.10;43.40;;;;;;491819;240;981;-53
2020/12/26 01:02:55;;;;;;;;;;;19.10;43.30;;;;;;491620;240;1282;-53
2020/12/26 01:04:56;;;;;;;;;;;19.10;43.30;;;;;;491613;240;2195;-53
2020/12/26 01:06:57;;;;;;;;;;;19.10;43.30;;;;;;491777;240;973;-53
2020/12/26 01:08:59;;;;;;;;;;;19.20;43.30;;;;;;491652;240;1192;-53
2020/12/26 01:11:00;;;;;;;;;;;19.20;43.30;;;;;;491962;240;1019;-53
2020/12/26 01:13:01;;;;;;;;;;;19.20;43.30;;;;;;491687;240;1463;-53
2020/12/26 01:15:03;;;;;;;;;;;19.20;43.20;;;;;;491755;240;1190;-53
2020/12/26 01:17:04;;;;;;;;;;;19.20;43.20;;;;;;491561;240;1243;-53
2020/12/26 01:19:05;;;;;;;;;;;19.20;43.20;;;;;;491606;240;1252;-53
2020/12/26 01:21:07;;;;;;;;;;;19.20;43.20;;;;;;491667;240;1042;-53
2020/12/26 01:23:07;;;;;;;;;;;19.20;43.20;;;;;;491625;240;2393;-53
2020/12/26 01:25:09;;;;;;;;;;;19.20;43.20;;;;;;491626;240;2132;-53
2020/12/26 01:27:10;;;;;;;;;;;19.30;43.20;;;;;;491817;240;1280;-53
2020/12/26 01:29:11;;;;;;;;;;;19.30;43.20;;;;;;492046;240;1066;-53
2020/12/26 01:31:12;;;;;;;;;;;19.30;43.20;;;;;;491678;240;966;-53
2020/12/26 01:33:14;;;;;;;;;;;19.30;43.20;;;;;;491818;240;1156;-53
2020/12/26 01:35:15;;;;;;;;;;;19.30;43.20;;;;;;491608;240;1026;-53
2020/12/26 01:37:17;;;;;;;;;;;19.30;43.20;;;;;;491555;240;1078;-53
2020/12/26 01:39:18;;;;;;;;;;;19.30;43.10;;;;;;491773;240;1080;-53
2020/12/26 01:41:19;;;;;;;;;;;19.30;43.10;;;;;;491697;240;1253;-53
2020/12/26 01:43:20;;;;;;;;;;;19.30;43.10;;;;;;491664;240;973;-53
2020/12/26 01:45:22;;;;;;;;;;;19.30;43.10;;;;;;491615;240;2187;-53
2020/12/26 01:47:23;;;;;;;;;;;19.30;43.10;;;;;;491623;240;1326;-53
2020/12/26 01:49:24;;;;;;;;;;;19.30;43.00;;;;;;491729;240;1044;-52
2020/12/26 01:51:25;;;;;;;;;;;19.30;43.10;;;;;;491569;240;1318;-53
2020/12/26 01:53:27;;;;;;;;;;;19.40;43.10;;;;;;491714;240;1241;-53
2020/12/26 01:55:28;;;;;;;;;;;19.40;43.10;;;;;;491629;240;1029;-53
2020/12/26 01:57:30;;;;;;;;;;;19.40;43.00;;;;;;491741;240;1198;-53
2020/12/26 01:59:31;;;;;;;;;;;19.40;43.00;;;;;;491854;240;1170;-53
2020/12/26 02:01:32;;;;;;;;;;;19.40;43.00;;;;;;491776;240;1335;-53
2020/12/26 02:03:33;;;;;;;;;;;19.40;43.00;;;;;;491736;240;1184;-53
2020/12/26 02:05:35;;;;;;;;;;;19.40;43.00;;;;;;491603;240;2121;-53
2020/12/26 02:07:36;;;;;;;;;;;19.40;43.00;;;;;;491630;240;1036;-53
2020/12/26 02:09:37;;;;;;;;;;;19.40;42.90;;;;;;491638;240;1238;-53
2020/12/26 02:11:39;;;;;;;;;;;19.40;42.90;;;;;;491615;240;1165;-53
2020/12/26 02:13:40;;;;;;;;;;;19.40;42.90;;;;;;491593;240;1319;-53
2020/12/26 02:15:41;;;;;;;;;;;19.40;42.90;;;;;;491672;240;1355;-53
2020/12/26 02:17:42;;;;;;;;;;;19.40;42.90;;;;;;491688;240;1197;-53
2020/12/26 02:19:44;;;;;;;;;;;19.50;43.00;;;;;;491692;240;1018;-53
2020/12/26 02:21:45;;;;;;;;;;;19.50;42.90;;;;;;491614;240;1129;-53
2020/12/26 02:23:46;;;;;;;;;;;19.50;42.90;;;;;;491742;240;1117;-53
2020/12/26 02:25:47;;;;;;;;;;;19.50;42.90;;;;;;491607;240;2203;-53
2020/12/26 02:27:49;;;;;;;;;;;19.50;42.80;;;;;;491652;240;1081;-53
2020/12/26 02:29:50;;;;;;;;;;;19.50;42.90;;;;;;491772;240;1001;-53
2020/12/26 02:31:51;;;;;;;;;;;19.50;42.90;;;;;;491641;240;1066;-53
2020/12/26 02:33:53;;;;;;;;;;;19.50;42.80;;;;;;491592;240;1184;-53
2020/12/26 02:35:54;;;;;;;;;;;19.50;42.80;;;;;;491606;240;1250;-54
2020/12/26 02:37:55;;;;;;;;;;;19.50;42.80;;;;;;491626;240;1193;-53
2020/12/26 02:39:56;;;;;;;;;;;19.50;42.80;;;;;;491585;240;1041;-53
2020/12/26 02:41:58;;;;;;;;;;;19.50;42.70;;;;;;491546;240;1226;-53
2020/12/26 02:43:59;;;;;;;;;;;19.60;42.80;;;;;;491632;240;956;-53
2020/12/26 02:46:00;;;;;;;;;;;19.60;42.80;;;;;;491614;240;2199;-53
2020/12/26 02:48:02;;;;;;;;;;;19.50;42.70;;;;;;491635;240;1227;-54
2020/12/26 02:50:03;;;;;;;;;;;19.50;42.70;;;;;;491610;240;1260;-53
2020/12/26 02:52:04;;;;;;;;;;;19.60;42.80;;;;;;491505;240;1408;-53
2020/12/26 02:54:05;;;;;;;;;;;19.60;42.80;;;;;;491958;240;1079;-53
2020/12/26 02:56:07;;;;;;;;;;;19.60;42.80;;;;;;491633;240;966;-53
2020/12/26 02:58:08;;;;;;;;;;;19.60;42.80;;;;;;491784;240;1209;-53
2020/12/26 03:00:09;;;;;;;;;;;19.60;42.80;;;;;;491607;240;968;-53
2020/12/26 03:02:10;;;;;;;;;;;19.60;42.70;;;;;;491536;240;1080;-53
2020/12/26 03:04:12;;;;;;;;;;;19.60;42.70;;;;;;491796;240;1117;-53
2020/12/26 03:06:13;;;;;;;;;;;19.60;42.70;;;;;;491830;240;2117;-53
2020/12/26 03:08:14;;;;;;;;;;;19.60;42.70;;;;;;491629;240;968;-53
2020/12/26 03:10:16;;;;;;;;;;;19.60;42.70;;;;;;491607;240;1066;-53
2020/12/26 03:12:17;;;;;;;;;;;19.60;42.70;;;;;;491612;240;1079;-53
2020/12/26 03:14:18;;;;;;;;;;;19.60;42.70;;;;;;491781;240;1108;-53
2020/12/26 03:16:19;;;;;;;;;;;19.60;42.60;;;;;;491640;240;1081;-53
2020/12/26 03:18:21;;;;;;;;;;;19.60;42.70;;;;;;491677;240;1159;-53
2020/12/26 03:20:22;;;;;;;;;;;19.70;42.70;;;;;;491782;240;1263;-53
2020/12/26 03:22:23;;;;;;;;;;;19.70;42.60;;;;;;491676;240;1259;-53
2020/12/26 03:24:24;;;;;;;;;;;19.60;42.60;;;;;;491651;240;2184;-53
2020/12/26 03:26:26;;;;;;;;;;;19.70;42.60;;;;;;491564;240;1181;-53
2020/12/26 03:28:27;;;;;;;;;;;19.70;42.60;;;;;;491815;240;1077;-53
2020/12/26 03:30:28;;;;;;;;;;;19.70;42.60;;;;;;491612;240;1214;-53
2020/12/26 03:32:30;;;;;;;;;;;19.70;42.60;;;;;;491583;240;1089;-53
2020/12/26 03:34:31;;;;;;;;;;;19.70;42.60;;;;;;491652;240;1200;-53
2020/12/26 03:36:32;;;;;;;;;;;19.70;42.60;;;;;;491587;240;1220;-53
2020/12/26 03:38:33;;;;;;;;;;;19.70;42.60;;;;;;491614;240;1041;-53
2020/12/26 03:40:35;;;;;;;;;;;19.70;42.50;;;;;;491772;240;1183;-53
2020/12/26 03:42:36;;;;;;;;;;;19.70;42.60;;;;;;491562;240;1196;-53
2020/12/26 03:44:37;;;;;;;;;;;19.70;42.50;;;;;;492126;240;2145;-53
2020/12/26 03:46:38;;;;;;;;;;;19.70;42.50;;;;;;491636;240;1055;-53
2020/12/26 03:48:40;;;;;;;;;;;19.70;42.50;;;;;;491547;240;1284;-53
2020/12/26 03:50:41;;;;;;;;;;;19.70;42.50;;;;;;491543;240;2012;-53
2020/12/26 03:52:42;;;;;;;;;;;19.70;42.50;;;;;;491591;240;1080;-53
2020/12/26 03:54:44;;;;;;;;;;;19.70;42.50;;;;;;491649;240;1191;-53
2020/12/26 03:56:45;;;;;;;;;;;19.70;42.50;;;;;;491777;240;1035;-53
2020/12/26 03:58:46;;;;;;;;;;;19.70;42.50;;;;;;491775;240;1080;-52
2020/12/26 04:00:48;;;;;;;;;;;19.70;42.50;;;;;;491649;240;1224;-53
2020/12/26 04:02:49;;;;;;;;;;;19.70;42.50;;;;;;491866;240;1016;-53
2020/12/26 04:04:50;;;;;;;;;;;19.70;42.40;;;;;;491683;240;2156;-53
2020/12/26 04:06:51;;;;;;;;;;;19.80;42.50;;;;;;491725;240;1054;-53
2020/12/26 04:08:53;;;;;;;;;;;19.80;42.50;;;;;;491695;240;1077;-53
2020/12/26 04:10:54;;;;;;;;;;;19.70;41.10;;;;;;491622;240;1140;-53
2020/12/26 04:12:55;;;;;;;;;;;19.80;42.50;;;;;;491592;240;1072;-53
2020/12/26 04:14:56;;;;;;;;;;;19.80;42.40;;;;;;491612;240;1005;-53
2020/12/26 04:16:58;;;;;;;;;;;19.80;42.40;;;;;;491706;240;1046;-53
2020/12/26 04:18:59;;;;;;;;;;;19.80;42.70;;;;;;491815;240;1130;-53
2020/12/26 04:21:00;;;;;;;;;;;19.90;42.60;;;;;;491877;240;1242;-53
2020/12/26 04:23:01;;;;;;;;;;;19.90;42.30;;;;;;491647;240;1036;-52
2020/12/26 04:25:03;;;;;;;;;;;19.90;42.20;;;;;;491596;240;2183;-52
2020/12/26 04:27:04;;;;;;;;;;;19.90;42.30;;;;;;491739;240;1069;-53
2020/12/26 04:29:05;;;;;;;;;;;19.90;42.40;;;;;;491622;240;1027;-53
2020/12/26 04:31:07;;;;;;;;;;;19.80;42.40;;;;;;491530;240;1208;-53
2020/12/26 04:33:08;;;;;;;;;;;19.70;42.50;;;;;;491567;240;1224;-53
2020/12/26 04:35:09;;;;;;;;;;;19.80;42.60;;;;;;491661;240;1216;-53
2020/12/26 04:37:10;;;;;;;;;;;19.70;42.70;;;;;;491859;240;1045;-53
2020/12/26 04:39:12;;;;;;;;;;;19.70;42.80;;;;;;491764;240;998;-53
2020/12/26 04:41:13;;;;;;;;;;;19.60;42.80;;;;;;491511;240;1090;-53
2020/12/26 04:43:14;;;;;;;;;;;19.60;42.90;;;;;;491659;240;1081;-53
2020/12/26 04:45:15;;;;;;;;;;;19.60;42.90;;;;;;491607;240;2177;-53
2020/12/26 04:47:17;;;;;;;;;;;19.50;43.00;;;;;;491589;240;1264;-53
2020/12/26 04:49:18;;;;;;;;;;;19.50;43.00;;;;;;491657;240;1143;-53
2020/12/26 04:51:19;;;;;;;;;;;19.40;43.00;;;;;;491922;240;1098;-53
2020/12/26 04:53:21;;;;;;;;;;;19.40;43.10;;;;;;491618;240;1224;-53
2020/12/26 04:55:22;;;;;;;;;;;19.40;43.20;;;;;;491690;240;2016;-53
2020/12/26 04:57:23;;;;;;;;;;;19.40;43.30;;;;;;491649;240;1383;-53
2020/12/26 04:59:25;;;;;;;;;;;19.30;43.30;;;;;;491687;240;989;-52
2020/12/26 05:01:26;;;;;;;;;;;19.30;43.30;;;;;;491596;240;1050;-53
2020/12/26 05:03:27;;;;;;;;;;;19.30;43.40;;;;;;491606;240;1173;-53
2020/12/26 05:05:28;;;;;;;;;;;19.30;43.40;;;;;;491770;240;2148;-53
2020/12/26 05:07:30;;;;;;;;;;;19.20;43.50;;;;;;491683;240;1324;-53
2020/12/26 05:09:31;;;;;;;;;;;19.20;43.50;;;;;;491741;240;994;-53
2020/12/26 05:11:32;;;;;;;;;;;19.20;43.50;;;;;;491772;240;1022;-53
2020/12/26 05:13:34;;;;;;;;;;;19.20;43.60;;;;;;491640;240;1073;-53
2020/12/26 05:15:35;;;;;;;;;;;19.10;43.60;;;;;;491517;240;1290;-55
2020/12/26 05:17:36;;;;;;;;;;;19.10;43.60;;;;;;491740;240;1060;-53
2020/12/26 05:19:37;;;;;;;;;;;19.10;43.70;;;;;;491723;240;1509;-53
2020/12/26 05:21:39;;;;;;;;;;;19.10;43.70;;;;;;491655;240;1157;-53
2020/12/26 05:23:40;;;;;;;;;;;19.10;43.70;;;;;;491744;240;1208;-53
2020/12/26 05:25:41;;;;;;;;;;;19.00;43.70;;;;;;491709;240;2180;-53
2020/12/26 05:27:43;;;;;;;;;;;19.00;43.80;;;;;;491782;240;1227;-53
2020/12/26 05:29:44;;;;;;;;;;;19.00;43.80;;;;;;491655;240;1050;-53
2020/12/26 05:31:45;;;;;;;;;;;19.00;43.80;;;;;;491537;240;1075;-53
2020/12/26 05:33:47;;;;;;;;;;;18.90;43.80;;;;;;491654;240;1060;-53
2020/12/26 05:35:48;;;;;;;;;;;19.00;43.90;;;;;;491600;240;1265;-53
2020/12/26 05:37:49;;;;;;;;;;;18.90;43.90;;;;;;491776;240;1037;-53
2020/12/26 05:39:50;;;;;;;;;;;18.90;43.90;;;;;;491800;240;1377;-52
2020/12/26 05:41:52;;;;;;;;;;;18.90;44.00;;;;;;491706;240;1269;-53
2020/12/26 05:43:53;;;;;;;;;;;18.90;44.00;;;;;;491846;240;1013;-53
2020/12/26 05:45:54;;;;;;;;;;;18.90;44.00;;;;;;491481;240;2176;-53
2020/12/26 05:47:55;;;;;;;;;;;18.80;44.00;;;;;;491525;240;1073;-53
2020/12/26 05:49:57;;;;;;;;;;;18.80;44.00;;;;;;491555;240;1173;-52
2020/12/26 05:51:58;;;;;;;;;;;18.80;44.00;;;;;;491724;240;1130;-53
2020/12/26 05:54:00;;;;;;;;;;;18.80;44.00;;;;;;491695;240;1107;-53
2020/12/26 05:56:01;;;;;;;;;;;18.80;44.10;;;;;;491610;240;1283;-53
2020/12/26 05:58:02;;;;;;;;;;;18.80;44.10;;;;;;491632;240;1077;-53
2020/12/26 06:00:03;;;;;;;;;;;18.80;44.10;;;;;;491703;240;1053;-53
2020/12/26 06:02:05;;;;;;;;;;;18.80;44.10;;;;;;491632;240;1085;-53
2020/12/26 06:04:06;;;;;;;;;;;18.80;44.10;;;;;;491583;240;1070;-53
2020/12/26 06:06:07;;;;;;;;;;;18.70;42.80;;;;;;491549;240;2204;-53
2020/12/26 06:08:09;;;;;;;;;;;18.70;44.10;;;;;;491908;240;1005;-53
2020/12/26 06:10:10;;;;;;;;;;;18.70;44.10;;;;;;491631;240;1365;-53
2020/12/26 06:12:11;;;;;;;;;;;18.70;44.20;;;;;;491599;240;1553;-53
2020/12/26 06:14:12;;;;;;;;;;;18.70;44.20;;;;;;491644;240;964;-53
2020/12/26 06:16:14;;;;;;;;;;;18.70;44.20;;;;;;491556;240;1311;-52
2020/12/26 06:18:15;;;;;;;;;;;18.70;44.20;;;;;;492113;240;1055;-53
2020/12/26 06:20:16;;;;;;;;;;;18.70;44.20;;;;;;491619;240;1168;-53
2020/12/26 06:22:18;;;;;;;;;;;18.60;42.90;;;;;;491565;240;1411;-53
2020/12/26 06:24:19;;;;;;;;;;;18.70;42.90;;;;;;491925;240;1103;-53
2020/12/26 06:26:20;;;;;;;;;;;18.70;44.30;;;;;;491544;240;2185;-52
2020/12/26 06:28:22;;;;;;;;;;;18.60;44.20;;;;;;491574;240;1228;-53
2020/12/26 06:30:23;;;;;;;;;;;18.60;44.20;;;;;;491712;240;1064;-52
2020/12/26 06:32:24;;;;;;;;;;;18.60;44.20;;;;;;491576;240;1279;-52
2020/12/26 06:34:26;;;;;;;;;;;18.60;44.20;;;;;;491691;240;1003;-53
2020/12/26 06:36:29;;;;;;;;;;;18.60;44.20;;;;;;491459;240;1298;-53
2020/12/26 06:38:28;;;;;;;;;;;18.60;44.30;;;;;;491521;241;2085;-53
2020/12/26 06:40:30;;;;;;;;;;;18.60;44.20;;;;;;491525;240;1025;-53
2020/12/26 06:42:31;;;;;;;;;;;18.60;44.30;;;;;;491604;240;1149;-53
2020/12/26 06:44:32;;;;;;;;;;;18.60;44.30;;;;;;491720;240;1047;-53
2020/12/26 06:46:33;;;;;;;;;;;18.60;44.30;;;;;;491595;240;2188;-53
2020/12/26 06:48:35;;;;;;;;;;;18.60;44.30;;;;;;491779;240;1069;-53
2020/12/26 06:50:36;;;;;;;;;;;18.50;44.30;;;;;;491771;240;1049;-53
2020/12/26 06:52:37;;;;;;;;;;;18.50;44.30;;;;;;491604;240;1177;-53
2020/12/26 06:54:39;;;;;;;;;;;18.60;44.30;;;;;;491743;240;1028;-53
2020/12/26 06:56:41;;;;;;;;;;;18.50;44.30;;;;;;491649;240;995;-53
2020/12/26 06:58:42;;;;;;;;;;;18.50;44.30;;;;;;491569;240;1345;-52
2020/12/26 07:00:43;;;;;;;;;;;18.50;44.30;;;;;;491578;240;1070;-53
2020/12/26 07:02:44;;;;;;;;;;;18.50;44.30;;;;;;491701;240;1353;-53
2020/12/26 07:04:46;;;;;;;;;;;18.50;44.40;;;;;;491630;240;1179;-53
2020/12/26 07:06:47;;;;;;;;;;;18.50;44.30;;;;;;491776;240;2153;-53
2020/12/26 07:08:48;;;;;;;;;;;18.50;44.30;;;;;;491606;240;1260;-53
2020/12/26 07:10:49;;;;;;;;;;;18.50;43.00;;;;;;491570;240;1137;-53
2020/12/26 07:12:51;;;;;;;;;;;18.50;44.30;;;;;;491535;240;1330;-53
2020/12/26 07:14:52;;;;;;;;;;;18.50;44.40;;;;;;491854;240;1036;-53
2020/12/26 07:16:53;;;;;;;;;;;18.50;44.40;;;;;;491643;240;1066;-53
2020/12/26 07:18:55;;;;;;;;;;;18.50;44.40;;;;;;491622;240;1270;-53
2020/12/26 07:20:56;;;;;;;;;;;18.50;44.40;;;;;;491952;240;1063;-53
2020/12/26 07:22:57;;;;;;;;;;;18.50;44.40;;;;;;491636;240;1161;-52
2020/12/26 07:24:58;;;;;;;;;;;18.40;44.40;;;;;;491857;240;991;-53
2020/12/26 07:27:00;;;;;;;;;;;18.40;44.40;;;;;;491611;240;2188;-53
2020/12/26 07:29:01;;;;;;;;;;;18.40;44.40;;;;;;491548;241;1107;-53
2020/12/26 07:31:02;;;;;;;;;;;18.40;44.40;;;;;;491703;240;960;-53
2020/12/26 07:33:04;;;;;;;;;;;18.40;44.30;;;;;;491506;240;1021;-53
2020/12/26 07:35:05;;;;;;;;;;;18.40;44.30;;;;;;491583;240;1064;-53
2020/12/26 07:37:06;;;;;;;;;;;18.40;44.40;;;;;;491665;240;1162;-53
2020/12/26 07:39:07;;;;;;;;;;;18.40;44.40;;;;;;491620;240;2173;-53
2020/12/26 07:41:11;;;;;;;;;;;18.40;44.40;;;;;;491822;240;1074;-53
2020/12/26 07:43:13;;;;;;;;;;;18.40;44.40;;;;;;491766;240;1038;-53
2020/12/26 07:45:14;;;;;;;;;;;18.40;44.40;;;;;;491601;240;1959;-53
2020/12/26 07:47:15;;;;;;;;;;;18.40;44.40;;;;;;491717;240;2144;-52
2020/12/26 07:49:16;;;;;;;;;;;18.40;44.40;;;;;;491733;240;1139;-53
2020/12/26 07:51:17;;;;;;;;;;;18.40;44.40;;;;;;491597;240;1264;-53
2020/12/26 07:53:19;;;;;;;;;;;18.40;44.40;;;;;;491591;240;1156;-53
2020/12/26 07:55:20;;;;;;;;;;;18.40;44.40;;;;;;491577;240;1146;-53
2020/12/26 07:57:21;;;;;;;;;;;18.40;44.40;;;;;;491636;240;1069;-53
2020/12/26 07:59:23;;;;;;;;;;;18.30;44.40;;;;;;491641;240;1022;-53
2020/12/26 08:01:24;;;;;;;;;;;18.30;43.10;;;;;;491763;240;1072;-53
2020/12/26 08:03:25;;;;;;;;;;;18.40;44.50;;;;;;491582;240;1073;-53
2020/12/26 08:05:26;;;;;;;;;;;18.30;44.40;;;;;;491639;240;1018;-53
2020/12/26 08:07:28;;;;;;;;;;;18.30;44.40;;;;;;491616;240;2124;-53
2020/12/26 08:09:29;;;;;;;;;;;18.30;44.50;;;;;;491682;240;1243;-53
2020/12/26 08:11:30;;;;;;;;;;;18.30;44.40;;;;;;491703;240;943;-53
2020/12/26 08:13:32;;;;;;;;;;;18.30;44.30;;;;;;491582;240;1136;-53
2020/12/26 08:15:33;;;;;;;;;;;18.40;44.30;;;;;;491574;240;1094;-54
2020/12/26 08:17:34;;;;;;;;;;;18.40;44.30;;;;;;491632;240;1112;-53
2020/12/26 08:19:35;;;;;;;;;;;18.40;44.20;;;;;;491663;240;1193;-53
2020/12/26 08:21:37;;;;;;;;;;;18.40;44.10;;;;;;491571;240;1127;-53
2020/12/26 08:23:38;;;;;;;;;;;18.40;44.10;;;;;;491710;240;1140;-53
2020/12/26 08:25:39;;;;;;;;;;;18.50;42.80;;;;;;491476;240;1271;-53
2020/12/26 08:27:41;;;;;;;;;;;18.40;44.00;;;;;;491509;240;2176;-53
2020/12/26 08:29:42;;;;;;;;;;;18.50;44.00;;;;;;491645;240;997;-53
2020/12/26 08:31:43;;;;;;;;;;;18.50;44.00;;;;;;491627;240;1187;-53
2020/12/26 08:33:44;;;;;;;;;;;18.50;43.90;;;;;;491586;240;1312;-53
2020/12/26 08:35:46;;;;;;;;;;;18.50;43.90;;;;;;491554;240;978;-52
2020/12/26 08:37:47;;;;;;;;;;;18.60;43.90;;;;;;491596;240;1192;-53
2020/12/26 08:39:48;;;;;;;;;;;18.60;42.50;;;;;;491595;240;1085;-53
2020/12/26 08:41:49;;;;;;;;;;;18.60;43.80;;;;;;491684;240;1068;-53
2020/12/26 08:43:51;;;;;;;;;;;18.60;43.80;;;;;;491594;240;1058;-53
2020/12/26 08:45:52;;;;;;;;;;;18.60;43.70;;;;;;491652;240;1052;-53
2020/12/26 08:47:55;;;;;;;;;;;18.60;43.70;;;;;;491461;240;2121;-53
2020/12/26 08:49:55;;;;;;;;;;;18.70;43.70;;;;;;491576;240;2204;-53
2020/12/26 08:51:56;;;;;;;;;;;18.70;43.70;;;;;;491572;240;1115;-53
2020/12/26 08:53:58;;;;;;;;;;;18.70;43.60;;;;;;491621;238;1315;-53
2020/12/26 08:55:59;;;;;;;;;;;18.70;43.60;;;;;;491828;240;1184;-53
2020/12/26 08:58:00;;;;;;;;;;;18.70;43.60;;;;;;491970;240;1278;-53
2020/12/26 09:00:01;;;;;;;;;;;18.70;43.60;;;;;;491703;240;1075;-53
2020/12/26 09:02:03;;;;;;;;;;;18.80;43.60;;;;;;491449;240;1212;-53
2020/12/26 09:04:04;;;;;;;;;;;18.80;43.60;;;;;;491808;240;1108;-54
2020/12/26 09:06:05;;;;;;;;;;;18.80;43.50;;;;;;491567;240;1215;-53
2020/12/26 09:08:07;;;;;;;;;;;18.80;43.50;;;;;;491669;240;2097;-53
2020/12/26 09:10:08;;;;;;;;;;;18.80;43.50;;;;;;491682;240;1160;-53
2020/12/26 09:12:09;;;;;;;;;;;18.80;43.50;;;;;;491594;240;1315;-53
2020/12/26 09:14:10;;;;;;;;;;;18.80;43.40;;;;;;491576;240;1082;-53
2020/12/26 09:16:12;;;;;;;;;;;18.90;43.40;;;;;;491533;240;1240;-53
2020/12/26 09:18:13;;;;;;;;;;;18.90;43.40;;;;;;491799;240;1238;-53
2020/12/26 09:20:14;;;;;;;;;;;18.90;43.40;;;;;;491536;240;1393;-53
2020/12/26 09:22:15;;;;;;;;;;;18.90;43.30;;;;;;491549;240;1636;-53
2020/12/26 09:24:17;;;;;;;;;;;18.90;42.00;;;;;;491560;240;1170;-53
2020/12/26 09:26:18;;;;;;;;;;;18.90;43.20;;;;;;491439;240;1274;-53
2020/12/26 09:28:19;;;;;;;;;;;18.90;43.20;;;;;;491555;240;2117;-53
2020/12/26 09:30:21;;;;;;;;;;;19.00;43.20;;;;;;491534;240;1238;-53
2020/12/26 09:32:23;;;;;;;;;;;19.00;43.20;;;;;;491541;240;1081;-53
2020/12/26 09:34:23;;;;;;;;;;;19.00;43.20;;;;;;491696;240;2150;-53
2020/12/26 09:36:25;;;;;;;;;;;19.00;43.20;;;;;;491500;240;1209;-53
2020/12/26 09:38:26;;;;;;;;;;;19.00;41.90;;;;;;491575;240;1266;-53
2020/12/26 09:40:27;;;;;;;;;;;19.00;43.10;;;;;;491502;240;1027;-53
2020/12/26 09:42:28;;;;;;;;;;;19.00;43.10;;;;;;491467;240;1254;-53
2020/12/26 09:44:30;;;;;;;;;;;19.10;43.10;;;;;;491697;240;1061;-53
2020/12/26 09:46:31;;;;;;;;;;;19.10;43.10;;;;;;491524;240;2191;-53
2020/12/26 09:48:32;;;;;;;;;;;19.10;43.10;;;;;;491464;240;1139;-53
2020/12/26 09:50:34;;;;;;;;;;;19.10;43.10;;;;;;491559;240;1050;-53
2020/12/26 09:52:35;;;;;;;;;;;19.10;41.80;;;;;;491628;240;1232;-53
2020/12/26 09:54:36;;;;;;;;;;;19.10;43.00;;;;;;491705;240;1181;-53
2020/12/26 09:56:37;;;;;;;;;;;19.10;43.00;;;;;;491662;240;1104;-53
2020/12/26 09:58:39;;;;;;;;;;;19.10;43.00;;;;;;491575;240;1182;-53
2020/12/26 10:00:40;;;;;;;;;;;19.10;43.00;;;;;;491604;240;1105;-53
2020/12/26 10:02:41;;;;;;;;;;;19.10;43.00;;;;;;491669;240;1205;-53
2020/12/26 10:04:42;;;;;;;;;;;19.10;42.90;;;;;;491721;240;1037;-53
2020/12/26 10:06:44;;;;;;;;;;;19.20;43.00;;;;;;491670;240;2117;-53
2020/12/26 10:08:45;;;;;;;;;;;19.20;42.90;;;;;;491500;240;1169;-53
2020/12/26 10:10:46;;;;;;;;;;;19.10;42.90;;;;;;491720;240;1195;-53
2020/12/26 10:12:47;;;;;;;;;;;19.20;42.90;;;;;;491531;240;1414;-53
2020/12/26 10:14:49;;;;;;;;;;;19.20;42.80;;;;;;491781;240;1109;-53
2020/12/26 10:16:50;;;;;;;;;;;19.20;42.90;;;;;;491515;240;1177;-53
2020/12/26 10:18:51;;;;;;;;;;;19.20;42.80;;;;;;491531;240;1056;-53
2020/12/26 10:20:53;;;;;;;;;;;19.20;42.80;;;;;;491583;240;1130;-53
2020/12/26 10:22:54;;;;;;;;;;;19.30;42.90;;;;;;491646;240;1070;-53
2020/12/26 10:24:55;;;;;;;;;;;19.30;42.80;;;;;;491657;240;1160;-53
2020/12/26 10:26:56;;;;;;;;;;;19.30;42.80;;;;;;491549;240;2228;-53
2020/12/26 10:28:58;;;;;;;;;;;19.30;42.80;;;;;;491655;240;1066;-53
2020/12/26 10:30:59;;;;;;;;;;;19.30;42.80;;;;;;491461;240;1599;-53
2020/12/26 10:33:01;;;;;;;;;;;19.30;42.70;;;;;;491814;240;1073;-53
2020/12/26 10:35:02;;;;;;;;;;;19.30;42.70;;;;;;491726;240;1178;-53
2020/12/26 10:37:04;;;;;;;;;;;19.30;42.70;;;;;;491395;240;1388;-53
2020/12/26 10:39:05;;;;;;;;;;;19.30;42.70;;;;;;491697;240;1196;-53
2020/12/26 10:41:06;;;;;;;;;;;19.30;42.70;;;;;;491443;240;1221;-53
2020/12/26 10:43:07;;;;;;;;;;;19.30;42.70;;;;;;491536;240;1170;-53
2020/12/26 10:45:09;;;;;;;;;;;19.30;42.60;;;;;;491578;240;1195;-53
2020/12/26 10:47:10;;;;;;;;;;;19.30;42.60;;;;;;491522;240;2192;-53
2020/12/26 10:49:11;;;;;;;;;;;19.40;42.70;;;;;;491509;240;1077;-53
2020/12/26 10:51:12;;;;;;;;;;;19.30;42.60;;;;;;491650;240;1206;-53
2020/12/26 10:53:14;;;;;;;;;;;19.40;42.60;;;;;;491655;240;1065;-53
2020/12/26 10:55:15;;;;;;;;;;;19.40;42.60;;;;;;491428;240;1227;-53
2020/12/26 10:57:16;;;;;;;;;;;19.40;42.60;;;;;;491573;240;1044;-53
2020/12/26 10:59:18;;;;;;;;;;;19.40;42.60;;;;;;491714;240;1133;-53
2020/12/26 11:01:19;;;;;;;;;;;19.40;42.60;;;;;;491662;240;987;-52
2020/12/26 11:03:21;;;;;;;;;;;19.40;42.60;;;;;;491703;240;1084;-53
2020/12/26 11:05:22;;;;;;;;;;;19.40;42.60;;;;;;491694;240;1327;-53
2020/12/26 11:07:23;;;;;;;;;;;19.40;42.50;;;;;;491714;240;2172;-53
2020/12/26 11:09:24;;;;;;;;;;;19.40;42.50;;;;;;491743;240;1152;-53
2020/12/26 11:11:26;;;;;;;;;;;19.40;42.50;;;;;;491635;240;1237;-53
2020/12/26 11:13:27;;;;;;;;;;;19.40;42.50;;;;;;491563;240;1077;-53
2020/12/26 11:15:28;;;;;;;;;;;19.40;42.40;;;;;;491888;240;1076;-53
2020/12/26 11:17:29;;;;;;;;;;;19.40;42.50;;;;;;491697;240;1296;-53
2020/12/26 11:19:31;;;;;;;;;;;19.50;42.50;;;;;;491756;240;1047;-53
2020/12/26 11:21:32;;;;;;;;;;;19.50;42.50;;;;;;491689;240;1229;-52
2020/12/26 11:23:33;;;;;;;;;;;19.50;42.50;;;;;;491710;240;1081;-53
2020/12/26 11:25:35;;;;;;;;;;;19.50;42.50;;;;;;491688;240;1157;-53
2020/12/26 11:27:36;;;;;;;;;;;19.50;42.50;;;;;;491560;240;2144;-53
2020/12/26 11:29:37;;;;;;;;;;;19.50;42.50;;;;;;491601;240;1022;-53
2020/12/26 11:31:38;;;;;;;;;;;19.50;42.50;;;;;;491604;240;1097;-53
2020/12/26 11:33:40;;;;;;;;;;;19.50;42.50;;;;;;491670;240;1078;-53
2020/12/26 11:35:41;;;;;;;;;;;19.50;42.50;;;;;;491684;240;1043;-53
2020/12/26 11:37:42;;;;;;;;;;;19.50;42.50;;;;;;491852;240;1096;-53
2020/12/26 11:39:43;;;;;;;;;;;19.50;42.50;;;;;;491618;238;1313;-53
2020/12/26 11:41:45;;;;;;;;;;;19.50;42.40;;;;;;491494;240;1094;-53
2020/12/26 11:43:46;;;;;;;;;;;19.50;42.40;;;;;;491688;240;1081;-54
2020/12/26 11:45:47;;;;;;;;;;;19.50;42.40;;;;;;491584;240;1071;-53
2020/12/26 11:47:49;;;;;;;;;;;19.60;42.40;;;;;;491501;240;2204;-53
2020/12/26 11:49:50;;;;;;;;;;;19.60;42.40;;;;;;491610;240;1031;-53
2020/12/26 11:51:51;;;;;;;;;;;19.60;42.40;;;;;;491695;240;1116;-53
2020/12/26 11:53:53;;;;;;;;;;;19.60;42.40;;;;;;491636;240;1091;-53
2020/12/26 11:55:54;;;;;;;;;;;19.50;42.30;;;;;;491703;240;1093;-53